sensor_id;sensor_type;location;lat;lon;timestamp;P1;durP1;ratioP1;P2;durP2;ratioP2
46391;SDS011;32098;49.448;7.904;2023-07-13T00:00:12;3.58;;;1.67;;
46391;SDS011;32098;49.448;7.904;2023-07-13T00:02:42;3.90;;;1.70;;
46391;SDS011;32098;49.448;7.904;2023-07-13T00:05:09;4.75;;;1.50;;
46391;SDS011;32098;49.448;7.904;2023-07-13T00:07:36;3.03;;;1.40;;
46391;SDS011;32098;49.448;7.904;2023-07-13T00:10:03;2.72;;;1.50;;
46391;SDS011;32098;49.448;7.904;2023-07-13T00:12:31;3.47;;;1.70;;
46391;SDS011;32098;49.448;7.904;2023-07-13T00:15:00;3.33;;;1.90;;
46391;SDS011;32098;49.448;7.904;2023-07-13T00:17:30;3.15;;;1.60;;
46391;SDS011;32098;49.448;7.904;2023-07-13T00:19:57;1.98;;;1.65;;
46391;SDS011;32098;49.448;7.904;2023-07-13T00:22:24;1.92;;;1.40;;
46391;SDS011;32098;49.448;7.904;2023-07-13T00:24:54;2.55;;;1.50;;
46391;SDS011;32098;49.448;7.904;2023-07-13T00:27:24;2.42;;;1.40;;
46391;SDS011;32098;49.448;7.904;2023-07-13T00:29:56;2.13;;;1.63;;
46391;SDS011;32098;49.448;7.904;2023-07-13T00:32:22;3.78;;;1.70;;
46391;SDS011;32098;49.448;7.904;2023-07-13T00:34:51;2.15;;;1.55;;
46391;SDS011;32098;49.448;7.904;2023-07-13T00:37:18;2.92;;;1.63;;
46391;SDS011;32098;49.448;7.904;2023-07-13T00:39:45;2.92;;;1.60;;
46391;SDS011;32098;49.448;7.904;2023-07-13T00:42:12;2.67;;;1.48;;
46391;SDS011;32098;49.448;7.904;2023-07-13T00:44:39;3.53;;;1.67;;
46391;SDS011;32098;49.448;7.904;2023-07-13T00:47:06;3.08;;;1.52;;
46391;SDS011;32098;49.448;7.904;2023-07-13T00:49:33;5.70;;;1.95;;
46391;SDS011;32098;49.448;7.904;2023-07-13T00:52:03;6.43;;;2.10;;
46391;SDS011;32098;49.448;7.904;2023-07-13T00:54:37;4.60;;;1.60;;
46391;SDS011;32098;49.448;7.904;2023-07-13T00:57:08;3.40;;;1.70;;
46391;SDS011;32098;49.448;7.904;2023-07-13T00:59:39;3.20;;;1.80;;
46391;SDS011;32098;49.448;7.904;2023-07-13T01:02:08;6.47;;;1.80;;
46391;SDS011;32098;49.448;7.904;2023-07-13T01:04:36;3.08;;;1.63;;
46391;SDS011;32098;49.448;7.904;2023-07-13T01:07:02;3.97;;;1.67;;
46391;SDS011;32098;49.448;7.904;2023-07-13T01:09:30;3.63;;;1.80;;
46391;SDS011;32098;49.448;7.904;2023-07-13T01:11:56;2.38;;;1.85;;
46391;SDS011;32098;49.448;7.904;2023-07-13T01:14:23;3.28;;;1.83;;
46391;SDS011;32098;49.448;7.904;2023-07-13T01:16:50;2.25;;;1.40;;
46391;SDS011;32098;49.448;7.904;2023-07-13T01:19:21;2.45;;;1.63;;
46391;SDS011;32098;49.448;7.904;2023-07-13T01:22:04;1.60;;;1.50;;
46391;SDS011;32098;49.448;7.904;2023-07-13T01:24:35;3.38;;;1.70;;
46391;SDS011;32098;49.448;7.904;2023-07-13T01:27:02;2.88;;;1.80;;
46391;SDS011;32098;49.448;7.904;2023-07-13T01:29:30;2.65;;;1.60;;
46391;SDS011;32098;49.448;7.904;2023-07-13T01:31:57;1.88;;;1.77;;
46391;SDS011;32098;49.448;7.904;2023-07-13T01:34:24;1.92;;;1.45;;
46391;SDS011;32098;49.448;7.904;2023-07-13T01:36:51;1.98;;;1.80;;
46391;SDS011;32098;49.448;7.904;2023-07-13T01:39:22;3.28;;;1.70;;
46391;SDS011;32098;49.448;7.904;2023-07-13T01:41:49;4.07;;;1.90;;
46391;SDS011;32098;49.448;7.904;2023-07-13T01:44:19;6.32;;;2.10;;
46391;SDS011;32098;49.448;7.904;2023-07-13T01:46:46;3.85;;;1.95;;
46391;SDS011;32098;49.448;7.904;2023-07-13T01:49:12;4.03;;;2.00;;
46391;SDS011;32098;49.448;7.904;2023-07-13T01:51:39;3.03;;;2.05;;
46391;SDS011;32098;49.448;7.904;2023-07-13T01:54:05;1.95;;;1.73;;
46391;SDS011;32098;49.448;7.904;2023-07-13T01:56:32;4.33;;;2.07;;
46391;SDS011;32098;49.448;7.904;2023-07-13T01:58:58;2.15;;;1.85;;
46391;SDS011;32098;49.448;7.904;2023-07-13T02:01:27;2.83;;;1.95;;
46391;SDS011;32098;49.448;7.904;2023-07-13T02:03:54;5.60;;;2.05;;
46391;SDS011;32098;49.448;7.904;2023-07-13T02:06:21;4.45;;;2.28;;
46391;SDS011;32098;49.448;7.904;2023-07-13T02:08:47;7.80;;;2.20;;
46391;SDS011;32098;49.448;7.904;2023-07-13T02:11:14;4.07;;;2.00;;
46391;SDS011;32098;49.448;7.904;2023-07-13T02:13:40;2.38;;;2.05;;
46391;SDS011;32098;49.448;7.904;2023-07-13T02:16:07;3.33;;;2.20;;
46391;SDS011;32098;49.448;7.904;2023-07-13T02:18:34;2.38;;;1.90;;
46391;SDS011;32098;49.448;7.904;2023-07-13T02:21:01;1.87;;;1.70;;
46391;SDS011;32098;49.448;7.904;2023-07-13T02:23:29;4.20;;;2.33;;
46391;SDS011;32098;49.448;7.904;2023-07-13T02:25:56;3.53;;;1.93;;
46391;SDS011;32098;49.448;7.904;2023-07-13T02:28:23;2.13;;;1.80;;
46391;SDS011;32098;49.448;7.904;2023-07-13T02:30:50;2.50;;;1.70;;
46391;SDS011;32098;49.448;7.904;2023-07-13T02:33:17;1.77;;;1.63;;
46391;SDS011;32098;49.448;7.904;2023-07-13T02:35:43;2.72;;;1.83;;
46391;SDS011;32098;49.448;7.904;2023-07-13T02:38:10;2.25;;;1.98;;
46391;SDS011;32098;49.448;7.904;2023-07-13T02:40:37;2.42;;;2.15;;
46391;SDS011;32098;49.448;7.904;2023-07-13T02:43:04;3.90;;;1.67;;
46391;SDS011;32098;49.448;7.904;2023-07-13T02:45:31;2.80;;;2.13;;
46391;SDS011;32098;49.448;7.904;2023-07-13T02:47:57;4.53;;;2.10;;
46391;SDS011;32098;49.448;7.904;2023-07-13T02:50:24;4.28;;;2.20;;
46391;SDS011;32098;49.448;7.904;2023-07-13T02:52:50;3.45;;;2.10;;
46391;SDS011;32098;49.448;7.904;2023-07-13T02:55:17;2.83;;;2.03;;
46391;SDS011;32098;49.448;7.904;2023-07-13T02:57:44;2.20;;;1.80;;
46391;SDS011;32098;49.448;7.904;2023-07-13T03:00:10;3.78;;;2.05;;
46391;SDS011;32098;49.448;7.904;2023-07-13T03:02:37;4.07;;;2.40;;
46391;SDS011;32098;49.448;7.904;2023-07-13T03:05:04;3.35;;;1.92;;
46391;SDS011;32098;49.448;7.904;2023-07-13T03:07:31;2.05;;;1.80;;
46391;SDS011;32098;49.448;7.904;2023-07-13T03:09:58;2.53;;;2.00;;
46391;SDS011;32098;49.448;7.904;2023-07-13T03:12:35;2.17;;;1.97;;
46391;SDS011;32098;49.448;7.904;2023-07-13T03:15:06;2.70;;;2.10;;
46391;SDS011;32098;49.448;7.904;2023-07-13T03:17:35;2.87;;;1.93;;
46391;SDS011;32098;49.448;7.904;2023-07-13T03:20:02;5.37;;;2.60;;
46391;SDS011;32098;49.448;7.904;2023-07-13T03:22:31;2.60;;;2.05;;
46391;SDS011;32098;49.448;7.904;2023-07-13T03:24:57;3.03;;;2.40;;
46391;SDS011;32098;49.448;7.904;2023-07-13T03:27:24;4.90;;;2.30;;
46391;SDS011;32098;49.448;7.904;2023-07-13T03:29:51;2.53;;;2.00;;
46391;SDS011;32098;49.448;7.904;2023-07-13T03:32:17;3.27;;;2.27;;
46391;SDS011;32098;49.448;7.904;2023-07-13T03:34:44;3.63;;;2.10;;
46391;SDS011;32098;49.448;7.904;2023-07-13T03:37:11;2.77;;;2.00;;
46391;SDS011;32098;49.448;7.904;2023-07-13T03:39:39;3.40;;;2.28;;
46391;SDS011;32098;49.448;7.904;2023-07-13T03:42:06;5.30;;;2.75;;
46391;SDS011;32098;49.448;7.904;2023-07-13T03:44:33;3.42;;;2.03;;
46391;SDS011;32098;49.448;7.904;2023-07-13T03:46:59;2.63;;;2.10;;
46391;SDS011;32098;49.448;7.904;2023-07-13T03:49:26;2.67;;;2.07;;
46391;SDS011;32098;49.448;7.904;2023-07-13T03:51:52;5.10;;;2.60;;
46391;SDS011;32098;49.448;7.904;2023-07-13T03:54:20;3.38;;;2.30;;
46391;SDS011;32098;49.448;7.904;2023-07-13T03:56:46;3.27;;;2.23;;
46391;SDS011;32098;49.448;7.904;2023-07-13T03:59:14;2.50;;;2.27;;
46391;SDS011;32098;49.448;7.904;2023-07-13T04:01:41;4.03;;;2.33;;
46391;SDS011;32098;49.448;7.904;2023-07-13T04:04:07;4.23;;;2.40;;
46391;SDS011;32098;49.448;7.904;2023-07-13T04:06:34;4.35;;;2.53;;
46391;SDS011;32098;49.448;7.904;2023-07-13T04:09:02;2.90;;;2.20;;
46391;SDS011;32098;49.448;7.904;2023-07-13T04:11:32;3.13;;;2.20;;
46391;SDS011;32098;49.448;7.904;2023-07-13T04:13:59;2.50;;;2.20;;
46391;SDS011;32098;49.448;7.904;2023-07-13T04:16:26;2.80;;;2.00;;
46391;SDS011;32098;49.448;7.904;2023-07-13T04:18:53;4.00;;;2.30;;
46391;SDS011;32098;49.448;7.904;2023-07-13T04:21:23;3.50;;;2.30;;
46391;SDS011;32098;49.448;7.904;2023-07-13T04:23:50;2.58;;;2.00;;
46391;SDS011;32098;49.448;7.904;2023-07-13T04:26:16;6.43;;;2.20;;
46391;SDS011;32098;49.448;7.904;2023-07-13T04:28:43;3.05;;;2.10;;
46391;SDS011;32098;49.448;7.904;2023-07-13T04:31:09;3.60;;;2.20;;
46391;SDS011;32098;49.448;7.904;2023-07-13T04:33:36;7.15;;;2.20;;
46391;SDS011;32098;49.448;7.904;2023-07-13T04:36:03;3.13;;;2.17;;
46391;SDS011;32098;49.448;7.904;2023-07-13T04:38:31;4.97;;;2.05;;
46391;SDS011;32098;49.448;7.904;2023-07-13T04:40:59;3.25;;;2.22;;
46391;SDS011;32098;49.448;7.904;2023-07-13T04:43:28;4.82;;;2.38;;
46391;SDS011;32098;49.448;7.904;2023-07-13T04:45:55;3.47;;;2.22;;
46391;SDS011;32098;49.448;7.904;2023-07-13T04:48:22;3.25;;;1.88;;
46391;SDS011;32098;49.448;7.904;2023-07-13T04:50:54;2.63;;;2.20;;
46391;SDS011;32098;49.448;7.904;2023-07-13T04:53:23;2.83;;;1.92;;
46391;SDS011;32098;49.448;7.904;2023-07-13T04:55:50;4.70;;;2.20;;
46391;SDS011;32098;49.448;7.904;2023-07-13T04:58:16;2.08;;;1.98;;
46391;SDS011;32098;49.448;7.904;2023-07-13T05:00:43;2.58;;;2.08;;
46391;SDS011;32098;49.448;7.904;2023-07-13T05:03:10;2.95;;;2.00;;
46391;SDS011;32098;49.448;7.904;2023-07-13T05:05:37;2.53;;;2.00;;
46391;SDS011;32098;49.448;7.904;2023-07-13T05:08:03;3.17;;;2.00;;
46391;SDS011;32098;49.448;7.904;2023-07-13T05:10:30;2.30;;;2.10;;
46391;SDS011;32098;49.448;7.904;2023-07-13T05:12:57;3.22;;;1.90;;
46391;SDS011;32098;49.448;7.904;2023-07-13T05:15:23;3.20;;;1.90;;
46391;SDS011;32098;49.448;7.904;2023-07-13T05:17:51;3.50;;;2.40;;
46391;SDS011;32098;49.448;7.904;2023-07-13T05:20:18;5.20;;;2.35;;
46391;SDS011;32098;49.448;7.904;2023-07-13T05:22:45;4.88;;;2.33;;
46391;SDS011;32098;49.448;7.904;2023-07-13T05:25:17;5.15;;;2.10;;
46391;SDS011;32098;49.448;7.904;2023-07-13T05:27:43;2.53;;;2.20;;
46391;SDS011;32098;49.448;7.904;2023-07-13T05:30:12;3.55;;;2.15;;
46391;SDS011;32098;49.448;7.904;2023-07-13T05:32:39;4.85;;;2.13;;
46391;SDS011;32098;49.448;7.904;2023-07-13T05:35:07;4.63;;;2.05;;
46391;SDS011;32098;49.448;7.904;2023-07-13T05:37:33;3.30;;;2.00;;
46391;SDS011;32098;49.448;7.904;2023-07-13T05:40:00;2.90;;;1.80;;
46391;SDS011;32098;49.448;7.904;2023-07-13T05:42:27;5.38;;;2.20;;
46391;SDS011;32098;49.448;7.904;2023-07-13T05:44:53;2.17;;;1.90;;
46391;SDS011;32098;49.448;7.904;2023-07-13T05:47:20;3.20;;;1.92;;
46391;SDS011;32098;49.448;7.904;2023-07-13T05:49:47;2.50;;;2.30;;
46391;SDS011;32098;49.448;7.904;2023-07-13T05:52:13;3.83;;;2.13;;
46391;SDS011;32098;49.448;7.904;2023-07-13T05:54:40;3.78;;;2.30;;
46391;SDS011;32098;49.448;7.904;2023-07-13T05:57:06;2.70;;;2.20;;
46391;SDS011;32098;49.448;7.904;2023-07-13T05:59:33;4.30;;;2.03;;
46391;SDS011;32098;49.448;7.904;2023-07-13T06:01:59;3.92;;;2.10;;
46391;SDS011;32098;49.448;7.904;2023-07-13T06:04:26;4.13;;;2.40;;
46391;SDS011;32098;49.448;7.904;2023-07-13T06:06:52;3.45;;;2.30;;
46391;SDS011;32098;49.448;7.904;2023-07-13T06:09:19;4.05;;;2.10;;
46391;SDS011;32098;49.448;7.904;2023-07-13T06:11:46;3.58;;;2.10;;
46391;SDS011;32098;49.448;7.904;2023-07-13T06:14:12;4.65;;;2.28;;
46391;SDS011;32098;49.448;7.904;2023-07-13T06:16:39;3.47;;;2.20;;
46391;SDS011;32098;49.448;7.904;2023-07-13T06:19:07;5.78;;;2.20;;
46391;SDS011;32098;49.448;7.904;2023-07-13T06:21:33;3.88;;;2.10;;
46391;SDS011;32098;49.448;7.904;2023-07-13T06:24:00;3.03;;;2.20;;
46391;SDS011;32098;49.448;7.904;2023-07-13T06:26:26;3.30;;;2.33;;
46391;SDS011;32098;49.448;7.904;2023-07-13T06:28:54;2.60;;;1.90;;
46391;SDS011;32098;49.448;7.904;2023-07-13T06:31:20;2.92;;;1.98;;
46391;SDS011;32098;49.448;7.904;2023-07-13T06:33:47;2.67;;;1.80;;
46391;SDS011;32098;49.448;7.904;2023-07-13T06:36:13;3.33;;;1.90;;
46391;SDS011;32098;49.448;7.904;2023-07-13T06:38:40;3.78;;;2.08;;
46391;SDS011;32098;49.448;7.904;2023-07-13T06:41:07;3.47;;;2.10;;
46391;SDS011;32098;49.448;7.904;2023-07-13T06:43:35;3.10;;;1.85;;
46391;SDS011;32098;49.448;7.904;2023-07-13T06:46:01;2.15;;;1.73;;
46391;SDS011;32098;49.448;7.904;2023-07-13T06:48:28;2.63;;;1.80;;
46391;SDS011;32098;49.448;7.904;2023-07-13T06:50:55;2.72;;;1.63;;
46391;SDS011;32098;49.448;7.904;2023-07-13T06:53:22;4.00;;;1.55;;
46391;SDS011;32098;49.448;7.904;2023-07-13T06:55:49;2.95;;;1.67;;
46391;SDS011;32098;49.448;7.904;2023-07-13T06:58:16;3.92;;;1.42;;
46391;SDS011;32098;49.448;7.904;2023-07-13T07:00:44;4.72;;;1.80;;
46391;SDS011;32098;49.448;7.904;2023-07-13T07:03:12;3.38;;;1.73;;
46391;SDS011;32098;49.448;7.904;2023-07-13T07:05:39;2.60;;;1.40;;
46391;SDS011;32098;49.448;7.904;2023-07-13T07:08:06;1.95;;;1.13;;
46391;SDS011;32098;49.448;7.904;2023-07-13T07:10:33;4.85;;;1.40;;
46391;SDS011;32098;49.448;7.904;2023-07-13T07:13:00;4.80;;;1.33;;
46391;SDS011;32098;49.448;7.904;2023-07-13T07:15:27;3.63;;;1.35;;
46391;SDS011;32098;49.448;7.904;2023-07-13T07:17:54;3.65;;;1.75;;
46391;SDS011;32098;49.448;7.904;2023-07-13T07:20:21;3.28;;;1.20;;
46391;SDS011;32098;49.448;7.904;2023-07-13T07:22:47;4.32;;;1.38;;
46391;SDS011;32098;49.448;7.904;2023-07-13T07:25:15;3.05;;;1.45;;
46391;SDS011;32098;49.448;7.904;2023-07-13T07:27:41;3.90;;;1.25;;
46391;SDS011;32098;49.448;7.904;2023-07-13T07:30:11;3.10;;;1.20;;
46391;SDS011;32098;49.448;7.904;2023-07-13T07:32:41;3.45;;;1.35;;
46391;SDS011;32098;49.448;7.904;2023-07-13T07:35:22;2.63;;;1.10;;
46391;SDS011;32098;49.448;7.904;2023-07-13T07:37:49;4.72;;;1.35;;
46391;SDS011;32098;49.448;7.904;2023-07-13T07:40:17;2.40;;;1.13;;
46391;SDS011;32098;49.448;7.904;2023-07-13T07:42:46;3.25;;;1.30;;
46391;SDS011;32098;49.448;7.904;2023-07-13T07:45:13;2.53;;;1.27;;
46391;SDS011;32098;49.448;7.904;2023-07-13T07:47:40;2.55;;;1.20;;
46391;SDS011;32098;49.448;7.904;2023-07-13T07:50:07;2.42;;;1.30;;
46391;SDS011;32098;49.448;7.904;2023-07-13T07:52:35;3.75;;;1.30;;
46391;SDS011;32098;49.448;7.904;2023-07-13T07:55:03;2.75;;;1.13;;
46391;SDS011;32098;49.448;7.904;2023-07-13T07:57:34;3.95;;;1.20;;
46391;SDS011;32098;49.448;7.904;2023-07-13T08:00:04;2.47;;;0.90;;
46391;SDS011;32098;49.448;7.904;2023-07-13T08:02:39;2.72;;;1.10;;
46391;SDS011;32098;49.448;7.904;2023-07-13T08:05:27;3.67;;;1.27;;
46391;SDS011;32098;49.448;7.904;2023-07-13T08:07:56;3.70;;;1.27;;
46391;SDS011;32098;49.448;7.904;2023-07-13T08:10:23;5.75;;;1.20;;
46391;SDS011;32098;49.448;7.904;2023-07-13T08:12:49;3.53;;;1.17;;
46391;SDS011;32098;49.448;7.904;2023-07-13T08:15:19;2.13;;;1.10;;
46391;SDS011;32098;49.448;7.904;2023-07-13T08:17:47;2.10;;;0.90;;
46391;SDS011;32098;49.448;7.904;2023-07-13T08:20:14;3.67;;;1.25;;
46391;SDS011;32098;49.448;7.904;2023-07-13T08:22:42;2.05;;;0.90;;
46391;SDS011;32098;49.448;7.904;2023-07-13T08:25:09;3.95;;;1.23;;
46391;SDS011;32098;49.448;7.904;2023-07-13T08:27:36;2.35;;;0.85;;
46391;SDS011;32098;49.448;7.904;2023-07-13T08:30:02;5.60;;;1.58;;
46391;SDS011;32098;49.448;7.904;2023-07-13T08:32:29;5.22;;;1.40;;
46391;SDS011;32098;49.448;7.904;2023-07-13T08:34:56;3.55;;;1.30;;
46391;SDS011;32098;49.448;7.904;2023-07-13T08:37:22;3.17;;;1.20;;
46391;SDS011;32098;49.448;7.904;2023-07-13T08:39:49;3.20;;;1.10;;
46391;SDS011;32098;49.448;7.904;2023-07-13T08:42:59;2.55;;;1.17;;
46391;SDS011;32098;49.448;7.904;2023-07-13T08:47:57;2.10;;;1.10;;
46391;SDS011;32098;49.448;7.904;2023-07-13T08:50:30;2.97;;;1.00;;
46391;SDS011;32098;49.448;7.904;2023-07-13T08:53:19;3.03;;;1.00;;
46391;SDS011;32098;49.448;7.904;2023-07-13T08:55:47;2.22;;;0.80;;
46391;SDS011;32098;49.448;7.904;2023-07-13T08:58:18;2.05;;;0.77;;
46391;SDS011;32098;49.448;7.904;2023-07-13T09:03:46;2.83;;;1.02;;
46391;SDS011;32098;49.448;7.904;2023-07-13T09:06:23;3.13;;;1.23;;
46391;SDS011;32098;49.448;7.904;2023-07-13T09:11:45;1.58;;;0.88;;
46391;SDS011;32098;49.448;7.904;2023-07-13T09:17:12;4.18;;;1.23;;
46391;SDS011;32098;49.448;7.904;2023-07-13T09:19:50;3.15;;;0.95;;
46391;SDS011;32098;49.448;7.904;2023-07-13T09:22:23;3.65;;;1.10;;
46391;SDS011;32098;49.448;7.904;2023-07-13T09:24:55;3.25;;;1.00;;
46391;SDS011;32098;49.448;7.904;2023-07-13T09:27:30;3.65;;;1.20;;
46391;SDS011;32098;49.448;7.904;2023-07-13T09:30:24;3.72;;;1.20;;
46391;SDS011;32098;49.448;7.904;2023-07-13T09:32:59;3.05;;;1.00;;
46391;SDS011;32098;49.448;7.904;2023-07-13T09:35:26;3.30;;;1.25;;
46391;SDS011;32098;49.448;7.904;2023-07-13T09:37:58;3.10;;;1.23;;
46391;SDS011;32098;49.448;7.904;2023-07-13T09:40:56;2.78;;;0.88;;
46391;SDS011;32098;49.448;7.904;2023-07-13T09:43:26;2.35;;;0.88;;
46391;SDS011;32098;49.448;7.904;2023-07-13T09:45:55;3.30;;;1.00;;
46391;SDS011;32098;49.448;7.904;2023-07-13T09:48:22;2.03;;;0.82;;
46391;SDS011;32098;49.448;7.904;2023-07-13T09:50:54;4.78;;;1.08;;
46391;SDS011;32098;49.448;7.904;2023-07-13T09:53:22;2.97;;;1.10;;
46391;SDS011;32098;49.448;7.904;2023-07-13T09:55:49;2.67;;;1.27;;
46391;SDS011;32098;49.448;7.904;2023-07-13T09:58:21;2.90;;;1.13;;
46391;SDS011;32098;49.448;7.904;2023-07-13T10:01:09;2.05;;;1.13;;
46391;SDS011;32098;49.448;7.904;2023-07-13T10:03:35;3.13;;;1.10;;
46391;SDS011;32098;49.448;7.904;2023-07-13T10:06:10;1.35;;;0.80;;
46391;SDS011;32098;49.448;7.904;2023-07-13T10:08:39;2.42;;;1.10;;
46391;SDS011;32098;49.448;7.904;2023-07-13T10:11:26;3.05;;;1.30;;
46391;SDS011;32098;49.448;7.904;2023-07-13T10:14:00;3.10;;;0.90;;
46391;SDS011;32098;49.448;7.904;2023-07-13T10:16:31;1.75;;;0.90;;
46391;SDS011;32098;49.448;7.904;2023-07-13T10:19:05;3.35;;;0.85;;
46391;SDS011;32098;49.448;7.904;2023-07-13T10:21:42;2.53;;;1.15;;
46391;SDS011;32098;49.448;7.904;2023-07-13T10:24:21;2.08;;;1.10;;
46391;SDS011;32098;49.448;7.904;2023-07-13T10:29:34;3.67;;;1.13;;
46391;SDS011;32098;49.448;7.904;2023-07-13T10:32:08;2.67;;;1.05;;
46391;SDS011;32098;49.448;7.904;2023-07-13T10:34:37;2.85;;;0.95;;
46391;SDS011;32098;49.448;7.904;2023-07-13T10:37:05;2.05;;;1.13;;
46391;SDS011;32098;49.448;7.904;2023-07-13T10:39:33;2.65;;;1.00;;
46391;SDS011;32098;49.448;7.904;2023-07-13T10:42:05;2.80;;;1.10;;
46391;SDS011;32098;49.448;7.904;2023-07-13T10:44:41;1.50;;;1.00;;
46391;SDS011;32098;49.448;7.904;2023-07-13T10:47:08;2.90;;;1.27;;
46391;SDS011;32098;49.448;7.904;2023-07-13T10:49:41;2.10;;;0.98;;
46391;SDS011;32098;49.448;7.904;2023-07-13T10:58:11;3.75;;;1.15;;
46391;SDS011;32098;49.448;7.904;2023-07-13T11:00:47;2.28;;;1.10;;
46391;SDS011;32098;49.448;7.904;2023-07-13T11:03:16;2.17;;;0.95;;
46391;SDS011;32098;49.448;7.904;2023-07-13T11:05:47;3.30;;;1.08;;
46391;SDS011;32098;49.448;7.904;2023-07-13T11:08:20;2.22;;;0.88;;
46391;SDS011;32098;49.448;7.904;2023-07-13T11:11:02;3.10;;;1.27;;
46391;SDS011;32098;49.448;7.904;2023-07-13T11:16:13;2.70;;;1.10;;
46391;SDS011;32098;49.448;7.904;2023-07-13T11:21:31;3.13;;;1.00;;
46391;SDS011;32098;49.448;7.904;2023-07-13T11:24:02;4.43;;;1.20;;
46391;SDS011;32098;49.448;7.904;2023-07-13T11:26:51;2.75;;;1.30;;
46391;SDS011;32098;49.448;7.904;2023-07-13T11:31:58;4.28;;;1.20;;
46391;SDS011;32098;49.448;7.904;2023-07-13T11:34:31;2.78;;;1.08;;
46391;SDS011;32098;49.448;7.904;2023-07-13T11:37:02;3.35;;;1.23;;
46391;SDS011;32098;49.448;7.904;2023-07-13T11:39:33;3.83;;;1.52;;
46391;SDS011;32098;49.448;7.904;2023-07-13T11:42:05;4.15;;;1.50;;
46391;SDS011;32098;49.448;7.904;2023-07-13T11:44:41;4.53;;;1.63;;
46391;SDS011;32098;49.448;7.904;2023-07-13T11:47:29;1.50;;;1.00;;
46391;SDS011;32098;49.448;7.904;2023-07-13T11:49:57;2.53;;;1.10;;
46391;SDS011;32098;49.448;7.904;2023-07-13T11:52:29;2.60;;;1.05;;
46391;SDS011;32098;49.448;7.904;2023-07-13T11:55:00;3.60;;;1.48;;
46391;SDS011;32098;49.448;7.904;2023-07-13T11:57:30;2.47;;;1.10;;
46391;SDS011;32098;49.448;7.904;2023-07-13T12:00:22;3.30;;;1.30;;
46391;SDS011;32098;49.448;7.904;2023-07-13T12:02:53;3.00;;;1.00;;
46391;SDS011;32098;49.448;7.904;2023-07-13T12:05:21;3.70;;;1.48;;
46391;SDS011;32098;49.448;7.904;2023-07-13T12:07:49;2.53;;;1.08;;
46391;SDS011;32098;49.448;7.904;2023-07-13T12:10:26;3.65;;;1.40;;
46391;SDS011;32098;49.448;7.904;2023-07-13T12:13:05;2.97;;;1.27;;
46391;SDS011;32098;49.448;7.904;2023-07-13T12:18:00;6.20;;;1.30;;
46391;SDS011;32098;49.448;7.904;2023-07-13T12:20:30;3.50;;;1.02;;
46391;SDS011;32098;49.448;7.904;2023-07-13T12:23:05;1.92;;;1.08;;
46391;SDS011;32098;49.448;7.904;2023-07-13T12:25:35;2.53;;;1.10;;
46391;SDS011;32098;49.448;7.904;2023-07-13T12:28:02;1.52;;;1.23;;
46391;SDS011;32098;49.448;7.904;2023-07-13T12:31:06;3.17;;;1.30;;
46391;SDS011;32098;49.448;7.904;2023-07-13T12:33:46;3.67;;;1.15;;
46391;SDS011;32098;49.448;7.904;2023-07-13T12:36:13;2.13;;;0.88;;
46391;SDS011;32098;49.448;7.904;2023-07-13T12:38:40;2.88;;;0.93;;
46391;SDS011;32098;49.448;7.904;2023-07-13T12:41:07;2.33;;;0.90;;
46391;SDS011;32098;49.448;7.904;2023-07-13T12:43:36;5.15;;;1.35;;
46391;SDS011;32098;49.448;7.904;2023-07-13T12:46:19;4.20;;;1.38;;
46391;SDS011;32098;49.448;7.904;2023-07-13T12:48:49;2.70;;;1.20;;
46391;SDS011;32098;49.448;7.904;2023-07-13T12:51:33;2.08;;;1.02;;
46391;SDS011;32098;49.448;7.904;2023-07-13T12:54:12;2.47;;;1.10;;
46391;SDS011;32098;49.448;7.904;2023-07-13T12:56:42;2.28;;;1.35;;
46391;SDS011;32098;49.448;7.904;2023-07-13T12:59:15;2.83;;;1.10;;
46391;SDS011;32098;49.448;7.904;2023-07-13T13:01:45;2.95;;;1.13;;
46391;SDS011;32098;49.448;7.904;2023-07-13T13:04:15;3.05;;;1.10;;
46391;SDS011;32098;49.448;7.904;2023-07-13T13:06:43;2.38;;;1.10;;
46391;SDS011;32098;49.448;7.904;2023-07-13T13:09:13;2.75;;;1.30;;
46391;SDS011;32098;49.448;7.904;2023-07-13T13:11:42;3.33;;;1.10;;
46391;SDS011;32098;49.448;7.904;2023-07-13T13:14:08;3.30;;;1.30;;
46391;SDS011;32098;49.448;7.904;2023-07-13T13:16:37;3.40;;;0.90;;
46391;SDS011;32098;49.448;7.904;2023-07-13T13:19:17;1.75;;;1.00;;
46391;SDS011;32098;49.448;7.904;2023-07-13T13:21:46;2.35;;;1.17;;
46391;SDS011;32098;49.448;7.904;2023-07-13T13:24:19;3.97;;;1.20;;
46391;SDS011;32098;49.448;7.904;2023-07-13T13:26:48;2.30;;;0.90;;
46391;SDS011;32098;49.448;7.904;2023-07-13T13:29:20;2.55;;;1.10;;
46391;SDS011;32098;49.448;7.904;2023-07-13T13:31:50;1.95;;;0.80;;
46391;SDS011;32098;49.448;7.904;2023-07-13T13:34:18;1.85;;;1.05;;
46391;SDS011;32098;49.448;7.904;2023-07-13T13:36:46;1.85;;;1.02;;
46391;SDS011;32098;49.448;7.904;2023-07-13T13:39:25;2.05;;;0.90;;
46391;SDS011;32098;49.448;7.904;2023-07-13T13:41:58;2.10;;;1.23;;
46391;SDS011;32098;49.448;7.904;2023-07-13T13:44:25;3.30;;;1.08;;
46391;SDS011;32098;49.448;7.904;2023-07-13T13:46:52;3.75;;;1.23;;
46391;SDS011;32098;49.448;7.904;2023-07-13T13:49:21;5.47;;;1.08;;
46391;SDS011;32098;49.448;7.904;2023-07-13T13:51:53;3.30;;;1.45;;
46391;SDS011;32098;49.448;7.904;2023-07-13T13:54:20;1.73;;;1.00;;
46391;SDS011;32098;49.448;7.904;2023-07-13T13:56:49;2.38;;;1.08;;
46391;SDS011;32098;49.448;7.904;2023-07-13T13:59:17;3.13;;;1.33;;
46391;SDS011;32098;49.448;7.904;2023-07-13T14:01:45;2.00;;;1.05;;
46391;SDS011;32098;49.448;7.904;2023-07-13T14:04:16;2.10;;;0.80;;
46391;SDS011;32098;49.448;7.904;2023-07-13T14:06:45;2.58;;;1.10;;
46391;SDS011;32098;49.448;7.904;2023-07-13T14:09:12;3.00;;;1.23;;
46391;SDS011;32098;49.448;7.904;2023-07-13T14:11:41;3.60;;;0.90;;
46391;SDS011;32098;49.448;7.904;2023-07-13T14:14:14;1.98;;;0.98;;
46391;SDS011;32098;49.448;7.904;2023-07-13T14:16:44;3.10;;;1.08;;
46391;SDS011;32098;49.448;7.904;2023-07-13T14:19:12;2.72;;;1.10;;
46391;SDS011;32098;49.448;7.904;2023-07-13T14:21:40;1.50;;;1.00;;
46391;SDS011;32098;49.448;7.904;2023-07-13T14:24:06;2.70;;;1.10;;
46391;SDS011;32098;49.448;7.904;2023-07-13T14:26:35;2.45;;;1.10;;
46391;SDS011;32098;49.448;7.904;2023-07-13T14:29:04;2.20;;;1.02;;
46391;SDS011;32098;49.448;7.904;2023-07-13T14:31:38;2.60;;;1.08;;
46391;SDS011;32098;49.448;7.904;2023-07-13T14:34:04;1.73;;;1.20;;
46391;SDS011;32098;49.448;7.904;2023-07-13T14:36:31;2.50;;;1.23;;
46391;SDS011;32098;49.448;7.904;2023-07-13T14:38:59;2.17;;;1.10;;
46391;SDS011;32098;49.448;7.904;2023-07-13T14:41:28;3.95;;;1.40;;
46391;SDS011;32098;49.448;7.904;2023-07-13T14:43:54;3.55;;;1.08;;
46391;SDS011;32098;49.448;7.904;2023-07-13T14:46:24;1.60;;;1.00;;
46391;SDS011;32098;49.448;7.904;2023-07-13T14:49:05;2.35;;;1.10;;
46391;SDS011;32098;49.448;7.904;2023-07-13T14:51:33;1.63;;;1.17;;
46391;SDS011;32098;49.448;7.904;2023-07-13T14:54:04;1.42;;;1.10;;
46391;SDS011;32098;49.448;7.904;2023-07-13T14:56:32;4.15;;;1.20;;
46391;SDS011;32098;49.448;7.904;2023-07-13T14:58:58;1.80;;;1.10;;
46391;SDS011;32098;49.448;7.904;2023-07-13T15:01:25;2.97;;;1.30;;
46391;SDS011;32098;49.448;7.904;2023-07-13T15:03:52;2.15;;;1.05;;
46391;SDS011;32098;49.448;7.904;2023-07-13T15:06:19;1.92;;;1.10;;
46391;SDS011;32098;49.448;7.904;2023-07-13T15:08:46;1.95;;;1.13;;
46391;SDS011;32098;49.448;7.904;2023-07-13T15:11:15;2.13;;;1.05;;
46391;SDS011;32098;49.448;7.904;2023-07-13T15:13:42;2.03;;;1.25;;
46391;SDS011;32098;49.448;7.904;2023-07-13T15:16:14;3.65;;;1.10;;
46391;SDS011;32098;49.448;7.904;2023-07-13T15:18:43;3.88;;;1.10;;
46391;SDS011;32098;49.448;7.904;2023-07-13T15:21:13;3.35;;;1.15;;
46391;SDS011;32098;49.448;7.904;2023-07-13T15:23:45;1.95;;;0.95;;
46391;SDS011;32098;49.448;7.904;2023-07-13T15:26:13;2.30;;;1.00;;
46391;SDS011;32098;49.448;7.904;2023-07-13T15:28:41;1.80;;;1.00;;
46391;SDS011;32098;49.448;7.904;2023-07-13T15:31:24;3.63;;;1.13;;